Time;durP1;ratioP1;P1;durP2;ratioP2;P2;SDS_P1;SDS_P2;PMS_P1;PMS_P2;Temp;Humidity;BMP_temperature;BMP_pressure;BME280_temperature;BME280_humidity;BME280_pressure;Samples;Min_cycle;Max_cycle;Signal;HPM_P1;HPM_P2
2023/05/27 00:07:41;;;;;;;9.87;3.53;;;;;;;7.41;55.29;101800.03;20257908;29;20358;-87
2023/05/27 00:17:43;;;;;;;15.53;3.83;;;;;;;7.66;53.75;101790.72;20258277;29;20280;-87
2023/05/27 00:27:47;;;;;;;12.43;3.73;;;;;;;7.34;55.17;101797.56;20257390;29;20284;-87
2023/05/27 00:37:50;;;;;;;10.70;3.90;;;;;;;6.73;57.77;101786.38;20278922;29;20607;-86
2023/05/27 00:47:52;;;;;;;10.20;3.90;;;;;;;6.78;57.73;101791.16;20293444;29;20197;-87
2023/05/27 00:57:55;;;;;;;11.80;3.67;;;;;;;7.08;56.87;101787.50;20240405;29;20645;-87
2023/05/27 01:08:03;;;;;;;12.63;3.87;;;;;;;6.29;59.59;101783.25;20257470;29;20253;-89
2023/05/27 01:18:06;;;;;;;14.07;4.20;;;;;;;6.50;58.64;101794.50;20230596;29;20295;-87
2023/05/27 01:28:08;;;;;;;14.03;3.50;;;;;;;6.38;60.42;101786.34;20243823;29;20293;-89
2023/05/27 01:38:14;;;;;;;14.53;4.30;;;;;;;6.36;59.60;101766.16;20247749;29;20265;-87
2023/05/27 01:48:19;;;;;;;13.20;3.83;;;;;;;5.81;61.05;101781.72;20253462;29;20205;-87
2023/05/27 01:58:21;;;;;;;14.53;4.30;;;;;;;6.44;58.91;101768.41;20267382;29;20261;-88
2023/05/27 02:08:24;;;;;;;9.50;3.70;;;;;;;5.69;61.69;101767.13;20270785;29;20251;-87
2023/05/27 02:18:27;;;;;;;14.13;3.73;;;;;;;5.91;60.77;101769.72;20265512;29;20217;-87
2023/05/27 02:28:29;;;;;;;12.53;4.03;;;;;;;5.82;61.97;101758.19;20259754;29;20280;-88
2023/05/27 02:38:32;;;;;;;13.23;4.43;;;;;;;5.23;63.65;101768.84;20235002;29;20221;-87
2023/05/27 02:48:35;;;;;;;11.97;3.63;;;;;;;5.34;63.80;101775.34;20244753;29;20209;-88
2023/05/27 02:58:37;;;;;;;9.27;4.20;;;;;;;5.55;62.91;101765.94;20249938;29;20217;-87
2023/05/27 03:08:40;;;;;;;11.40;4.83;;;;;;;5.63;62.48;101757.03;20213287;29;20264;-90
2023/05/27 03:18:45;;;;;;;12.40;4.77;;;;;;;5.49;62.99;101751.09;20255792;29;20221;-89
2023/05/27 03:28:48;;;;;;;15.60;4.90;;;;;;;5.41;63.44;101747.97;20253389;29;20233;-87
2023/05/27 03:38:51;;;;;;;15.60;4.13;;;;;;;5.35;63.18;101744.25;20233412;29;20692;-87
2023/05/27 03:48:53;;;;;;;13.60;4.00;;;;;;;5.37;63.48;101755.19;20256483;29;20192;-88
2023/05/27 03:58:56;;;;;;;11.63;4.97;;;;;;;5.32;63.77;101745.63;20255693;29;20484;-87
2023/05/27 04:08:58;;;;;;;12.03;5.23;;;;;;;5.81;62.08;101730.44;20239029;29;20209;-89
2023/05/27 04:19:01;;;;;;;11.80;5.10;;;;;;;5.27;64.86;101726.03;20261776;29;20224;-88
2023/05/27 04:29:04;;;;;;;14.20;4.90;;;;;;;5.41;64.08;101726.38;20241871;29;20237;-87
2023/05/27 04:39:07;;;;;;;12.20;4.87;;;;;;;5.94;61.87;101741.13;20254832;29;20217;-89
2023/05/27 04:49:11;;;;;;;10.33;5.47;;;;;;;6.05;62.64;101725.19;20251548;29;20202;-90
2023/05/27 04:59:16;;;;;;;10.97;5.73;;;;;;;5.89;62.68;101739.16;20260811;29;20599;-87
2023/05/27 05:09:21;;;;;;;14.00;5.63;;;;;;;6.02;62.32;101721.81;20238969;29;20685;-88
2023/05/27 05:19:24;;;;;;;15.77;7.30;;;;;;;6.30;61.48;101722.41;20238474;29;20220;-89
2023/05/27 05:29:27;;;;;;;16.30;6.27;;;;;;;6.24;61.75;101726.31;20253735;29;20233;-89
2023/05/27 05:39:29;;;;;;;16.57;7.47;;;;;;;6.72;60.36;101725.75;20216567;29;20382;-88
2023/05/27 05:49:32;;;;;;;17.30;7.70;;;;;;;6.65;61.07;101714.00;20214024;29;20209;-88
2023/05/27 05:59:35;;;;;;;15.77;5.70;;;;;;;6.50;60.65;101694.34;20248699;29;20213;-88
2023/05/27 06:09:37;;;;;;;12.20;5.27;;;;;;;7.11;60.02;101701.81;20251420;29;20258;-86
2023/05/27 06:19:45;;;;;;;14.65;5.35;;;;;;;7.20;59.29;101714.16;20237780;29;20245;-87
2023/05/27 06:29:47;;;;;;;19.37;6.03;;;;;;;7.31;58.59;101722.25;20229557;29;20233;-87
2023/05/27 06:39:57;;;;;;;17.93;5.47;;;;;;;7.60;58.65;101705.56;20234982;29;20225;-85
2023/05/27 06:50:00;;;;;;;12.40;5.35;;;;;;;8.20;56.53;101689.44;20239591;29;20201;-87
2023/05/27 07:00:05;;;;;;;14.77;6.67;;;;;;;8.02;57.01;101695.75;20217460;29;20229;-86
2023/05/27 07:10:17;;;;;;;15.15;6.70;;;;;;;8.44;56.17;101678.25;20230246;29;20202;-87
2023/05/27 07:20:19;;;;;;;12.63;6.00;;;;;;;8.76;56.65;101675.72;20225603;29;20229;-84
2023/05/27 07:30:22;;;;;;;17.23;5.33;;;;;;;9.91;52.09;101657.63;20229829;29;20233;-85
2023/05/27 07:40:31;;;;;;;14.57;5.40;;;;;;;9.74;53.03;101656.47;20253151;29;20550;-85
2023/05/27 07:50:33;;;;;;;11.35;5.10;;;;;;;10.28;50.88;101648.28;20235720;29;20256;-88
2023/05/27 08:00:40;;;;;;;13.90;5.85;;;;;;;11.05;49.93;101632.72;20246430;29;20526;-92
2023/05/27 08:10:44;;;;;;;14.07;5.50;;;;;;;10.54;50.23;101628.91;20236614;29;20267;-92
2023/05/27 08:21:00;;;;;;;12.65;5.05;;;;;;;11.37;48.67;101604.38;20212368;29;20237;-87
2023/05/27 08:31:21;;;;;;;15.27;5.30;;;;;;;11.57;47.74;101591.72;20247046;29;20229;-85
2023/05/27 08:41:28;;;;;;;16.17;5.68;;;;;;;11.91;46.70;101580.69;20227669;29;20221;-86
2023/05/27 08:51:32;;;;;;;13.82;5.10;;;;;;;12.39;46.50;101563.91;20195065;29;20210;-86
2023/05/27 09:01:35;;;;;;;15.88;4.72;;;;;;;11.82;45.55;101547.84;20218271;29;20301;-86
